De Tour Village, Michigan
Current Conditions -  °F | °C
As of 11:14 AM on Monday 24 Nov 2014 (Local Time) from KDRM Reporting Station
Haze Haze  
Wind Chill: 37°   Ceiling: 300
Heat Index: 42°   Visibility: 2mi
Dew Point: 42°   Wind: 7mph
Humidity: 100%   Direction: 260°W
Pressure: 28.94"   Gusts: 16mph
Location:  45.99°N, 83.9°W
Report Text: KDRM 241614Z AUTO 26006G14KT 2SM BR OVC003 05/05 A2894 RMK AO2 T00530053
Loading
Personal Weather Stations






























Interactive Weather Map New forecast layout! Learn more

10-Day Weather Forecast

Advertisements
Track Severe Weather on mobile